Time;durP1;ratioP1;P1;durP2;ratioP2;P2;SDS_P1;SDS_P2;PMS_P1;PMS_P2;Temp;Humidity;BMP_temperature;BMP_pressure;BME280_temperature;BME280_humidity;BME280_pressure;Samples;Min_cycle;Max_cycle;Signal;HPM_P1;HPM_P2
2023/12/25 00:01:36;;;;;;;13.27;8.97;;;6.10;99.90;;;;;;5065672;28;20221;-75
2023/12/25 00:04:02;;;;;;;13.47;9.30;;;6.20;99.90;;;;;;5069467;28;20178;-79
2023/12/25 00:06:28;;;;;;;12.70;8.87;;;6.30;99.90;;;;;;5056468;28;20175;-77
2023/12/25 00:08:54;;;;;;;12.33;8.20;;;6.40;99.90;;;;;;5056102;28;20200;-80
2023/12/25 00:11:20;;;;;;;15.60;9.90;;;6.30;99.90;;;;;;5056066;28;20185;-79
2023/12/25 00:13:47;;;;;;;11.90;7.93;;;6.20;99.90;;;;;;5055954;28;20175;-79
2023/12/25 00:16:13;;;;;;;10.60;7.27;;;6.20;99.90;;;;;;5056159;28;20567;-76
2023/12/25 00:18:38;;;;;;;9.17;6.90;;;6.10;99.90;;;;;;5055662;28;20289;-80
2023/12/25 00:21:04;;;;;;;9.23;7.27;;;6.20;99.90;;;;;;5055419;28;20182;-78
2023/12/25 00:23:30;;;;;;;11.73;7.73;;;6.10;99.90;;;;;;5055398;28;20258;-79
2023/12/25 00:25:56;;;;;;;9.77;7.50;;;6.10;99.90;;;;;;5057510;28;20194;-76
2023/12/25 00:28:21;;;;;;;11.60;7.93;;;6.10;99.90;;;;;;5066993;28;20209;-76
2023/12/25 00:30:47;;;;;;;10.10;7.10;;;6.00;99.90;;;;;;5039122;28;20681;-77
2023/12/25 00:33:13;;;;;;;10.87;7.37;;;6.00;99.90;;;;;;5060355;28;20182;-75
2023/12/25 00:35:38;;;;;;;8.97;6.80;;;6.10;99.90;;;;;;5044040;28;20203;-77
2023/12/25 00:38:04;;;;;;;8.33;6.30;;;6.10;99.90;;;;;;5058268;28;20174;-78
2023/12/25 00:40:30;;;;;;;9.20;6.87;;;6.10;99.90;;;;;;5076659;28;20170;-78
2023/12/25 00:42:55;;;;;;;9.90;6.67;;;6.20;99.90;;;;;;5067922;28;20174;-79
2023/12/25 00:45:21;;;;;;;9.83;7.93;;;6.20;99.90;;;;;;5038366;28;20174;-79
2023/12/25 00:47:47;;;;;;;9.00;6.90;;;6.20;99.90;;;;;;5057097;28;20187;-78
2023/12/25 00:50:13;;;;;;;8.53;6.93;;;6.20;99.90;;;;;;5061878;28;20246;-75
2023/12/25 00:52:38;;;;;;;9.13;7.13;;;6.10;99.90;;;;;;5061178;28;20208;-77
2023/12/25 00:55:05;;;;;;;10.23;7.57;;;6.20;99.90;;;;;;5054709;28;20182;-78
2023/12/25 00:57:30;;;;;;;8.30;6.93;;;6.20;99.90;;;;;;5055243;28;20525;-76
2023/12/25 00:59:56;;;;;;;10.63;8.07;;;6.10;99.90;;;;;;5059022;28;20168;-79
2023/12/25 01:02:22;;;;;;;12.03;7.10;;;6.10;99.90;;;;;;5056153;28;20214;-79
2023/12/25 01:04:47;;;;;;;9.43;7.50;;;6.20;99.90;;;;;;5055842;28;20175;-78
2023/12/25 01:07:13;;;;;;;11.53;7.07;;;6.10;99.90;;;;;;5054899;28;20182;-79
2023/12/25 01:09:40;;;;;;;8.57;6.40;;;6.10;99.90;;;;;;5054613;28;20215;-79
2023/12/25 01:12:06;;;;;;;6.80;6.10;;;6.10;99.90;;;;;;5036897;28;20256;-78
2023/12/25 01:14:32;;;;;;;8.77;6.23;;;6.20;99.90;;;;;;5055134;28;20172;-79
2023/12/25 01:16:58;;;;;;;8.30;5.53;;;6.20;99.90;;;;;;5056472;28;20256;-75
2023/12/25 01:19:24;;;;;;;9.33;5.80;;;6.20;99.90;;;;;;5054975;28;20164;-78
2023/12/25 01:21:49;;;;;;;7.30;5.70;;;6.20;99.90;;;;;;5054641;28;20191;-77
2023/12/25 01:24:15;;;;;;;8.37;5.40;;;6.20;99.90;;;;;;5053850;28;20216;-78
2023/12/25 01:26:41;;;;;;;7.43;5.20;;;6.20;99.90;;;;;;5037036;28;20554;-78
2023/12/25 01:29:07;;;;;;;5.57;4.83;;;6.10;99.90;;;;;;5056152;28;20207;-75
2023/12/25 01:31:32;;;;;;;5.40;4.90;;;6.10;99.90;;;;;;5054276;28;20206;-79
2023/12/25 01:33:58;;;;;;;4.73;4.30;;;6.10;99.90;;;;;;5036079;28;20654;-77
2023/12/25 01:36:24;;;;;;;12.77;5.07;;;6.20;99.90;;;;;;5054280;28;20178;-79
2023/12/25 01:38:50;;;;;;;5.73;4.87;;;6.10;99.90;;;;;;5054710;28;20194;-78
2023/12/25 01:41:15;;;;;;;6.03;5.10;;;6.10;99.90;;;;;;5056712;28;20180;-79
2023/12/25 01:43:41;;;;;;;7.50;5.20;;;6.20;99.90;;;;;;5054054;28;20180;-77
2023/12/25 01:46:07;;;;;;;6.77;5.27;;;6.30;99.90;;;;;;5068006;28;20188;-76
2023/12/25 01:48:33;;;;;;;6.77;5.10;;;6.40;99.90;;;;;;5072882;28;20172;-77
2023/12/25 01:51:00;;;;;;;6.30;4.93;;;6.40;99.90;;;;;;5058344;28;20225;-77
2023/12/25 01:53:26;;;;;;;7.80;5.70;;;6.50;99.90;;;;;;5055488;28;20164;-79
2023/12/25 01:55:52;;;;;;;6.33;5.70;;;6.60;99.90;;;;;;5053938;28;20187;-79
2023/12/25 01:58:18;;;;;;;6.13;5.50;;;6.60;99.90;;;;;;5054584;28;20252;-79
2023/12/25 02:00:44;;;;;;;6.77;5.43;;;6.60;99.90;;;;;;5055078;28;20262;-76
2023/12/25 02:03:10;;;;;;;8.20;6.17;;;6.50;99.90;;;;;;5055639;28;20182;-76
2023/12/25 02:05:36;;;;;;;8.17;5.93;;;6.60;99.90;;;;;;5059984;28;20175;-78
2023/12/25 02:08:03;;;;;;;7.17;6.10;;;6.50;99.90;;;;;;5035911;28;20580;-79
2023/12/25 02:10:29;;;;;;;6.57;5.77;;;6.50;99.90;;;;;;5053435;28;20207;-78
2023/12/25 02:12:57;;;;;;;6.07;5.47;;;6.60;99.90;;;;;;5053592;28;20217;-77
2023/12/25 02:15:26;;;;;;;7.57;5.90;;;6.60;99.90;;;;;;5054159;28;20258;-77
2023/12/25 02:17:52;;;;;;;5.83;5.30;;;6.60;99.90;;;;;;5054878;28;20294;-77
2023/12/25 02:20:20;;;;;;;7.00;5.33;;;6.60;99.90;;;;;;5053957;28;20531;-78
2023/12/25 02:22:46;;;;;;;4.93;4.43;;;6.60;99.90;;;;;;5036404;28;20175;-78
2023/12/25 02:25:24;;;;;;;5.97;4.93;;;6.70;99.90;;;;;;5055014;28;20209;-78
2023/12/25 02:27:50;;;;;;;6.57;4.20;;;6.70;99.90;;;;;;5068324;28;20175;-76
2023/12/25 02:30:15;;;;;;;6.23;4.70;;;6.70;99.90;;;;;;5064226;28;20214;-76
2023/12/25 02:32:41;;;;;;;5.70;4.37;;;6.80;99.90;;;;;;5074569;28;20179;-75
2023/12/25 02:35:07;;;;;;;4.97;4.17;;;6.80;99.90;;;;;;5053809;28;20182;-77
2023/12/25 02:37:33;;;;;;;5.87;4.17;;;6.80;99.90;;;;;;5053744;28;20193;-76
2023/12/25 02:39:59;;;;;;;5.10;4.47;;;6.80;99.90;;;;;;5054271;28;20194;-78
2023/12/25 02:42:24;;;;;;;6.77;4.50;;;6.80;99.90;;;;;;5053257;28;20508;-77
2023/12/25 02:44:50;;;;;;;4.70;3.53;;;6.80;99.90;;;;;;5053511;28;20603;-80
2023/12/25 02:47:16;;;;;;;5.27;4.30;;;6.70;99.90;;;;;;5052842;28;20170;-77
2023/12/25 02:49:41;;;;;;;4.33;3.93;;;6.70;99.90;;;;;;5053154;28;20302;-78
2023/12/25 02:52:07;;;;;;;5.60;3.93;;;6.70;99.90;;;;;;5053069;28;20534;-79
2023/12/25 02:54:33;;;;;;;4.33;3.90;;;6.80;99.90;;;;;;5052721;28;20178;-77
2023/12/25 02:56:59;;;;;;;5.73;3.77;;;6.80;99.90;;;;;;5052795;28;20580;-77
2023/12/25 02:59:24;;;;;;;12.33;4.30;;;6.90;99.90;;;;;;5053502;28;20517;-76
2023/12/25 03:01:50;;;;;;;4.87;4.10;;;6.80;99.90;;;;;;5052732;28;20215;-76
2023/12/25 03:04:16;;;;;;;4.27;3.73;;;6.90;99.90;;;;;;5059826;28;20270;-78
2023/12/25 03:06:42;;;;;;;4.10;3.70;;;7.00;99.90;;;;;;5061331;28;20643;-78
2023/12/25 03:09:07;;;;;;;4.50;3.67;;;6.90;99.90;;;;;;5039564;28;20206;-79
2023/12/25 03:11:33;;;;;;;4.30;3.10;;;6.80;99.90;;;;;;5053724;28;20168;-78
2023/12/25 03:14:00;;;;;;;3.93;3.23;;;6.90;99.90;;;;;;5053020;28;20187;-79
2023/12/25 03:16:25;;;;;;;3.67;3.30;;;6.90;99.90;;;;;;5035421;28;20183;-78
2023/12/25 03:18:51;;;;;;;3.93;3.53;;;6.90;99.90;;;;;;5053514;28;20207;-75
2023/12/25 03:21:17;;;;;;;4.23;3.83;;;6.90;99.90;;;;;;5038928;28;20273;-77
2023/12/25 03:23:44;;;;;;;3.43;3.13;;;6.90;99.90;;;;;;5060460;28;20195;-79
2023/12/25 03:26:09;;;;;;;3.53;3.23;;;6.80;99.90;;;;;;5060008;28;20171;-79
2023/12/25 03:28:35;;;;;;;3.87;3.47;;;6.80;99.90;;;;;;5056480;28;20172;-79
2023/12/25 03:31:01;;;;;;;3.10;2.90;;;6.80;99.90;;;;;;5056994;28;20206;-76
2023/12/25 03:33:26;;;;;;;3.90;3.27;;;6.80;99.90;;;;;;5068500;28;20250;-77
2023/12/25 03:35:52;;;;;;;3.50;3.20;;;6.80;99.90;;;;;;5069919;28;20657;-77
2023/12/25 03:38:18;;;;;;;3.43;2.73;;;6.90;99.90;;;;;;5056956;28;20210;-78
2023/12/25 03:40:44;;;;;;;3.43;3.13;;;7.00;99.90;;;;;;5055811;28;20286;-78
2023/12/25 03:43:09;;;;;;;5.00;3.10;;;7.00;99.90;;;;;;5057188;28;20258;-78
2023/12/25 03:45:35;;;;;;;3.43;3.13;;;7.00;99.90;;;;;;5057348;28;20641;-77
2023/12/25 03:48:01;;;;;;;3.23;3.03;;;7.10;99.90;;;;;;5057808;28;20187;-78
2023/12/25 03:50:27;;;;;;;3.30;3.00;;;7.10;99.90;;;;;;5040153;28;20301;-79
2023/12/25 03:52:53;;;;;;;3.60;3.30;;;7.00;99.90;;;;;;5057700;28;20190;-78
2023/12/25 03:55:18;;;;;;;3.50;3.10;;;7.10;99.90;;;;;;5058600;28;20236;-74
2023/12/25 03:57:44;;;;;;;3.73;3.23;;;7.00;99.90;;;;;;5058522;28;20964;-76
2023/12/25 04:00:10;;;;;;;2.63;2.43;;;7.00;99.90;;;;;;5057798;28;20201;-75
2023/12/25 04:02:36;;;;;;;3.57;3.27;;;7.00;99.90;;;;;;5058969;28;20228;-76
2023/12/25 04:05:02;;;;;;;2.83;2.63;;;7.00;99.90;;;;;;5063394;28;20235;-76
2023/12/25 04:07:28;;;;;;;5.17;2.60;;;6.90;99.90;;;;;;5069458;28;20239;-78
2023/12/25 04:09:54;;;;;;;2.80;2.60;;;7.00;99.90;;;;;;5056681;28;20204;-78
2023/12/25 04:12:19;;;;;;;2.97;2.50;;;7.00;99.90;;;;;;5057701;28;20178;-76
2023/12/25 04:14:45;;;;;;;2.93;2.73;;;7.00;99.90;;;;;;5056960;28;20209;-76
2023/12/25 04:17:11;;;;;;;3.07;2.87;;;7.00;99.90;;;;;;5056969;28;20168;-76
2023/12/25 04:19:37;;;;;;;2.97;2.47;;;7.00;99.90;;;;;;5058014;28;20198;-75
2023/12/25 04:22:03;;;;;;;2.87;2.67;;;7.00;99.90;;;;;;5063870;28;20154;-77
2023/12/25 04:24:28;;;;;;;2.73;2.53;;;7.00;99.90;;;;;;5065134;28;20266;-79
2023/12/25 04:26:54;;;;;;;2.60;2.40;;;7.00;99.90;;;;;;5056390;28;20172;-78
2023/12/25 04:29:20;;;;;;;3.00;2.70;;;7.00;99.90;;;;;;5057774;28;20207;-76
2023/12/25 04:31:45;;;;;;;2.63;2.43;;;7.10;99.90;;;;;;5070585;28;20182;-76
2023/12/25 04:34:11;;;;;;;3.03;2.73;;;7.10;99.90;;;;;;5056460;28;20549;-77
2023/12/25 04:36:37;;;;;;;2.60;2.40;;;7.10;99.90;;;;;;5057441;28;20174;-76
2023/12/25 04:39:03;;;;;;;2.80;2.60;;;7.10;99.90;;;;;;5056325;28;20250;-80
2023/12/25 04:41:29;;;;;;;3.07;2.50;;;7.10;99.90;;;;;;5057146;28;20168;-78
2023/12/25 04:43:54;;;;;;;3.10;2.80;;;7.10;99.90;;;;;;5055867;28;20499;-79
2023/12/25 04:46:20;;;;;;;3.10;2.53;;;7.20;99.90;;;;;;5037630;28;20623;-77
2023/12/25 04:48:48;;;;;;;2.60;2.50;;;7.20;99.90;;;;;;5055826;28;20647;-79
2023/12/25 04:51:14;;;;;;;2.80;2.60;;;7.20;99.90;;;;;;5056843;28;20269;-79
2023/12/25 04:53:39;;;;;;;3.00;2.50;;;7.20;99.90;;;;;;5056890;28;20199;-78
2023/12/25 04:56:10;;;;;;;2.70;2.50;;;7.30;99.90;;;;;;5039818;28;20237;-79
2023/12/25 04:58:35;;;;;;;2.50;2.30;;;7.20;99.90;;;;;;5056531;28;20160;-77
2023/12/25 05:01:02;;;;;;;2.33;2.17;;;7.20;99.90;;;;;;5056374;28;20255;-77
2023/12/25 05:03:28;;;;;;;2.83;2.30;;;7.10;99.90;;;;;;5038916;28;20184;-75
2023/12/25 05:05:54;;;;;;;2.60;2.40;;;7.10;99.90;;;;;;5057168;28;20179;-77
2023/12/25 05:08:20;;;;;;;3.63;2.50;;;7.10;99.90;;;;;;5057972;28;20580;-76
2023/12/25 05:10:45;;;;;;;2.43;2.30;;;7.10;99.90;;;;;;5056241;28;20722;-78
2023/12/25 05:13:11;;;;;;;2.63;2.10;;;7.10;99.90;;;;;;5056701;28;20632;-78
2023/12/25 05:15:37;;;;;;;4.10;2.20;;;7.10;99.90;;;;;;5057159;28;20643;-78
2023/12/25 05:18:02;;;;;;;2.27;2.07;;;7.10;99.90;;;;;;5037895;28;20266;-77
2023/12/25 05:20:28;;;;;;;3.97;2.20;;;7.20;99.90;;;;;;5065515;28;20180;-78
2023/12/25 05:22:54;;;;;;;2.50;2.30;;;7.20;99.90;;;;;;5056110;28;20631;-77
2023/12/25 05:25:20;;;;;;;2.53;2.33;;;7.20;99.90;;;;;;5055428;28;20305;-78
2023/12/25 05:27:45;;;;;;;2.70;2.37;;;7.10;99.90;;;;;;5037621;28;20179;-77
2023/12/25 05:30:11;;;;;;;2.63;2.33;;;7.10;99.90;;;;;;5055768;28;20199;-76
2023/12/25 05:32:38;;;;;;;2.30;2.20;;;7.10;99.90;;;;;;5064072;28;20212;-79
2023/12/25 05:35:04;;;;;;;1.97;1.87;;;7.10;99.90;;;;;;5060267;28;20195;-76
2023/12/25 05:37:31;;;;;;;4.20;2.10;;;7.00;99.90;;;;;;5057106;28;20174;-77
2023/12/25 05:39:56;;;;;;;2.10;2.00;;;7.00;99.90;;;;;;5056885;28;20175;-75
2023/12/25 05:42:22;;;;;;;2.63;2.27;;;7.00;99.90;;;;;;5069680;28;20222;-76
2023/12/25 05:44:48;;;;;;;2.33;2.20;;;7.00;99.90;;;;;;5069817;28;20299;-80
2023/12/25 05:47:14;;;;;;;2.27;2.17;;;7.00;99.90;;;;;;5055279;28;20175;-79
2023/12/25 05:49:40;;;;;;;4.63;3.20;;;7.00;99.90;;;;;;5056311;28;20203;-79
2023/12/25 05:52:05;;;;;;;2.80;2.60;;;6.90;99.90;;;;;;5054807;28;20182;-77
2023/12/25 05:54:31;;;;;;;2.77;2.57;;;6.90;99.90;;;;;;5053667;28;20175;-78
2023/12/25 05:56:58;;;;;;;2.30;2.17;;;7.00;99.90;;;;;;5054984;28;20174;-76
2023/12/25 05:59:23;;;;;;;2.17;2.07;;;6.90;99.90;;;;;;5054742;28;20185;-79
2023/12/25 06:01:49;;;;;;;3.03;2.40;;;7.00;99.90;;;;;;5057455;28;20230;-77
2023/12/25 06:04:15;;;;;;;2.17;2.07;;;7.00;99.90;;;;;;5055074;28;20696;-77
2023/12/25 06:06:41;;;;;;;3.27;2.40;;;7.00;99.90;;;;;;5056006;28;20208;-79
2023/12/25 06:09:10;;;;;;;2.40;2.20;;;7.00;99.90;;;;;;5055992;28;20193;-78
2023/12/25 06:11:36;;;;;;;2.33;2.23;;;7.00;99.90;;;;;;5055166;28;20263;-77
2023/12/25 06:14:03;;;;;;;2.63;2.43;;;7.00;99.90;;;;;;5059229;28;20639;-77
2023/12/25 06:16:29;;;;;;;5.23;2.13;;;7.00;99.90;;;;;;5055835;28;20261;-78
2023/12/25 06:18:55;;;;;;;2.17;2.07;;;7.00;99.90;;;;;;5055990;28;20594;-78
2023/12/25 06:21:20;;;;;;;2.07;1.97;;;7.00;99.90;;;;;;5038634;28;20639;-78
2023/12/25 06:23:46;;;;;;;2.63;2.40;;;7.00;99.90;;;;;;5055001;28;20178;-77
2023/12/25 06:26:12;;;;;;;2.37;2.27;;;7.00;99.90;;;;;;5055658;28;20168;-78
2023/12/25 06:28:38;;;;;;;2.50;2.30;;;7.00;99.90;;;;;;5043435;28;20174;-76
2023/12/25 06:31:04;;;;;;;2.57;2.37;;;7.10;99.90;;;;;;5065331;28;20214;-79
2023/12/25 06:33:29;;;;;;;2.93;2.17;;;7.00;99.90;;;;;;5055042;28;20179;-78
2023/12/25 06:35:55;;;;;;;4.70;2.17;;;7.10;99.90;;;;;;5055499;28;20180;-79
2023/12/25 06:38:21;;;;;;;2.60;2.40;;;7.10;99.90;;;;;;5054704;28;20647;-77
2023/12/25 06:40:47;;;;;;;2.90;2.60;;;7.10;99.90;;;;;;5054297;28;20634;-78
2023/12/25 06:43:13;;;;;;;6.20;2.77;;;7.00;99.90;;;;;;5067157;28;20183;-77
2023/12/25 06:45:39;;;;;;;2.67;2.30;;;7.10;99.90;;;;;;5054972;28;20180;-79
2023/12/25 06:48:05;;;;;;;6.20;2.70;;;7.00;99.90;;;;;;5054003;28;20210;-77
2023/12/25 06:50:30;;;;;;;3.50;2.30;;;7.00;99.90;;;;;;5053546;28;20210;-79
2023/12/25 06:52:57;;;;;;;2.73;2.40;;;7.00;99.90;;;;;;5054039;28;20245;-77
2023/12/25 06:55:23;;;;;;;2.10;2.00;;;7.00;99.90;;;;;;5053547;28;20179;-76
2023/12/25 06:57:49;;;;;;;3.00;2.70;;;6.90;99.90;;;;;;5078503;28;20203;-74
2023/12/25 07:00:15;;;;;;;2.27;2.17;;;6.90;99.90;;;;;;5091965;28;20163;-77
2023/12/25 07:02:42;;;;;;;2.87;2.47;;;6.90;99.90;;;;;;5087278;28;20225;-76
2023/12/25 07:05:08;;;;;;;2.90;2.70;;;6.90;99.90;;;;;;5091009;28;20168;-77
2023/12/25 07:07:34;;;;;;;4.83;3.90;;;6.90;99.90;;;;;;5064125;28;20525;-77
2023/12/25 07:10:00;;;;;;;2.73;2.53;;;6.90;99.90;;;;;;5078332;28;20235;-78
2023/12/25 07:12:25;;;;;;;2.90;2.57;;;6.80;99.90;;;;;;5081062;28;20182;-77
2023/12/25 07:14:52;;;;;;;3.03;2.60;;;6.80;99.90;;;;;;5092167;28;20277;-75
2023/12/25 07:17:18;;;;;;;2.70;2.50;;;6.80;99.90;;;;;;5083810;28;20171;-75
2023/12/25 07:19:43;;;;;;;2.73;2.27;;;6.80;99.90;;;;;;5085952;28;20179;-77
2023/12/25 07:22:12;;;;;;;2.73;2.50;;;6.80;99.90;;;;;;5090190;28;20530;-79
2023/12/25 07:24:38;;;;;;;2.80;2.60;;;6.80;99.90;;;;;;5082757;28;20197;-78
2023/12/25 07:27:05;;;;;;;2.40;2.20;;;6.80;99.90;;;;;;5078060;28;20161;-78
2023/12/25 07:29:30;;;;;;;3.17;2.47;;;6.80;99.90;;;;;;5060422;28;20301;-77
2023/12/25 07:31:57;;;;;;;2.73;2.53;;;6.80;99.90;;;;;;5077833;28;20269;-79
2023/12/25 07:34:23;;;;;;;3.00;2.70;;;6.80;99.90;;;;;;5077563;28;20216;-78
2023/12/25 07:36:49;;;;;;;2.53;2.40;;;6.80;99.90;;;;;;5046723;28;20182;-79
2023/12/25 07:39:15;;;;;;;4.10;3.60;;;6.80;99.90;;;;;;5056680;28;20642;-78
2023/12/25 07:41:45;;;;;;;11.47;9.37;;;6.90;99.90;;;;;;5056408;28;20209;-79
2023/12/25 07:44:15;;;;;;;8.10;7.10;;;6.90;99.90;;;;;;5058131;28;20707;-80
2023/12/25 07:46:40;;;;;;;5.33;4.73;;;7.00;99.90;;;;;;5058535;28;20268;-76
2023/12/25 07:49:06;;;;;;;4.00;3.70;;;7.00;99.90;;;;;;5057777;28;20210;-78
2023/12/25 07:51:32;;;;;;;4.30;3.63;;;7.00;99.90;;;;;;5057196;28;20214;-78
2023/12/25 07:53:57;;;;;;;3.60;3.30;;;7.00;99.90;;;;;;5057090;28;20168;-79
2023/12/25 07:56:28;;;;;;;2.97;2.67;;;7.00;99.90;;;;;;5057590;28;20178;-79
2023/12/25 07:58:54;;;;;;;4.03;3.67;;;7.00;99.90;;;;;;5059177;28;20167;-78
2023/12/25 08:01:22;;;;;;;5.13;4.23;;;7.10;99.90;;;;;;5056516;28;20220;-76
2023/12/25 08:03:50;;;;;;;3.50;3.20;;;7.20;99.90;;;;;;5056432;28;20263;-79
2023/12/25 08:06:15;;;;;;;3.57;3.30;;;7.10;99.90;;;;;;5056381;28;20194;-77
2023/12/25 08:08:41;;;;;;;3.70;3.40;;;7.10;99.90;;;;;;5057171;28;20267;-77
2023/12/25 08:11:07;;;;;;;3.73;3.43;;;7.20;99.90;;;;;;5057418;28;20236;-79
2023/12/25 08:13:33;;;;;;;3.07;2.87;;;7.20;99.90;;;;;;5055234;28;20195;-78
2023/12/25 08:15:58;;;;;;;4.07;3.77;;;7.30;99.90;;;;;;5037400;28;20322;-78
2023/12/25 08:18:24;;;;;;;5.20;3.40;;;7.40;99.90;;;;;;5067536;28;20175;-77
2023/12/25 08:20:50;;;;;;;4.27;3.53;;;7.40;99.90;;;;;;5060777;28;20209;-78
2023/12/25 08:23:15;;;;;;;4.13;3.57;;;7.40;99.90;;;;;;5056481;28;20581;-76
2023/12/25 08:25:41;;;;;;;4.30;3.90;;;7.50;99.90;;;;;;5055793;28;20176;-77
2023/12/25 08:28:07;;;;;;;4.43;4.03;;;7.60;99.90;;;;;;5063902;28;20178;-76
2023/12/25 08:30:33;;;;;;;4.60;4.20;;;7.70;99.90;;;;;;5070428;28;20214;-77
2023/12/25 08:32:59;;;;;;;4.20;3.90;;;7.70;99.90;;;;;;5056978;28;20175;-75
2023/12/25 08:35:24;;;;;;;4.17;3.23;;;7.70;99.90;;;;;;5057212;28;20176;-79
2023/12/25 08:37:50;;;;;;;3.63;3.33;;;7.70;99.90;;;;;;5068928;28;20227;-77
2023/12/25 08:40:16;;;;;;;3.17;2.97;;;7.80;99.90;;;;;;5062721;28;20234;-78
2023/12/25 08:42:42;;;;;;;3.87;3.40;;;7.90;99.90;;;;;;5056742;28;20660;-79
2023/12/25 08:45:08;;;;;;;21.87;13.47;;;7.80;99.90;;;;;;5056826;28;20182;-81
2023/12/25 08:47:34;;;;;;;11.07;6.80;;;7.70;99.90;;;;;;5060333;28;20178;-77
2023/12/25 08:50:00;;;;;;;9.17;6.80;;;7.80;99.90;;;;;;5065172;28;20202;-80
2023/12/25 08:52:27;;;;;;;9.43;6.63;;;7.80;99.90;;;;;;5066038;28;20171;-77
2023/12/25 08:54:52;;;;;;;6.90;5.83;;;7.80;99.90;;;;;;5061121;28;20179;-78
2023/12/25 08:57:18;;;;;;;9.43;5.97;;;7.90;99.90;;;;;;5057624;28;20657;-79
2023/12/25 08:59:49;;;;;;;8.53;6.30;;;7.90;99.90;;;;;;5043864;28;20179;-75
2023/12/25 09:02:15;;;;;;;6.97;5.50;;;8.00;99.90;;;;;;5070152;28;20219;-77
2023/12/25 09:04:41;;;;;;;6.80;4.63;;;7.90;99.90;;;;;;5052871;28;20183;-78
2023/12/25 09:07:07;;;;;;;5.80;4.20;;;7.90;99.90;;;;;;5058148;28;20230;-77
2023/12/25 09:09:33;;;;;;;5.20;4.77;;;8.00;99.90;;;;;;5055791;28;20202;-77
2023/12/25 09:11:58;;;;;;;6.67;4.80;;;8.00;99.90;;;;;;5056385;28;20187;-78
2023/12/25 09:14:24;;;;;;;8.60;5.20;;;8.10;99.90;;;;;;5056353;28;20697;-78
2023/12/25 09:16:50;;;;;;;5.83;4.57;;;8.20;99.90;;;;;;5055886;28;20177;-77
2023/12/25 09:19:15;;;;;;;4.20;3.80;;;8.30;99.90;;;;;;5056091;28;20294;-78
2023/12/25 09:21:42;;;;;;;6.50;5.13;;;8.30;99.90;;;;;;5055681;28;20668;-76
2023/12/25 09:24:08;;;;;;;4.97;4.33;;;8.40;99.90;;;;;;5038047;28;20180;-77
2023/12/25 09:26:34;;;;;;;3.70;3.30;;;8.40;99.90;;;;;;5055818;28;20179;-79
2023/12/25 09:28:59;;;;;;;4.67;4.07;;;8.40;99.90;;;;;;5055516;28;20250;-77
2023/12/25 09:31:25;;;;;;;3.87;3.43;;;8.40;99.90;;;;;;5055709;28;20607;-80
2023/12/25 09:33:51;;;;;;;3.90;3.60;;;8.30;99.90;;;;;;5054933;28;20207;-77
2023/12/25 09:36:17;;;;;;;3.93;3.60;;;8.30;99.90;;;;;;5055506;28;20245;-80
2023/12/25 09:38:43;;;;;;;4.30;3.90;;;8.40;99.90;;;;;;5064750;28;20627;-77
2023/12/25 09:41:10;;;;;;;5.90;3.93;;;8.50;99.90;;;;;;5037981;28;20183;-77
2023/12/25 09:43:41;;;;;;;5.30;4.80;;;8.60;99.90;;;;;;5054557;28;20170;-76
2023/12/25 09:46:10;;;;;;;7.37;4.70;;;8.70;99.90;;;;;;5055567;28;20687;-77
2023/12/25 09:48:38;;;;;;;8.43;5.30;;;8.80;99.90;;;;;;5055744;28;20162;-77
2023/12/25 09:51:05;;;;;;;6.33;5.20;;;8.80;99.90;;;;;;5055991;28;20276;-76
2023/12/25 09:53:31;;;;;;;7.40;5.67;;;8.90;99.90;;;;;;5060884;28;20173;-78
2023/12/25 09:55:59;;;;;;;14.20;8.57;;;9.00;99.90;;;;;;5064828;28;20249;-79
2023/12/25 09:58:26;;;;;;;8.80;6.13;;;9.00;99.90;;;;;;5061797;28;20175;-77
2023/12/25 10:00:54;;;;;;;6.10;5.40;;;8.90;99.90;;;;;;5055859;28;20516;-76
2023/12/25 10:03:20;;;;;;;8.47;6.33;;;8.90;99.90;;;;;;5055611;28;20179;-74
2023/12/25 10:05:46;;;;;;;5.77;5.13;;;8.90;99.90;;;;;;5054685;28;20623;-79
2023/12/25 10:08:12;;;;;;;5.83;5.23;;;8.90;99.90;;;;;;5054721;28;20186;-78
2023/12/25 10:10:38;;;;;;;5.97;5.37;;;8.90;99.90;;;;;;5055211;28;20223;-79
2023/12/25 10:13:04;;;;;;;6.43;5.53;;;9.00;99.90;;;;;;5055185;28;20255;-79
2023/12/25 10:15:30;;;;;;;6.50;5.90;;;9.10;99.90;;;;;;5054494;28;20206;-78
2023/12/25 10:18:06;;;;;;;7.00;6.27;;;9.10;99.90;;;;;;5054802;28;20560;-76
2023/12/25 10:20:32;;;;;;;7.60;6.67;;;9.20;99.90;;;;;;5036806;28;20182;-77
2023/12/25 10:22:59;;;;;;;8.67;6.47;;;9.30;99.90;;;;;;5057930;28;20175;-76
2023/12/25 10:25:28;;;;;;;6.03;5.47;;;9.20;99.90;;;;;;5054190;28;20172;-76
2023/12/25 10:27:54;;;;;;;6.63;5.23;;;9.30;99.90;;;;;;5059658;28;20182;-77
2023/12/25 10:30:21;;;;;;;8.70;5.63;;;9.30;99.90;;;;;;5067372;28;20191;-78
2023/12/25 10:32:48;;;;;;;6.67;5.53;;;9.30;99.90;;;;;;5054883;28;20266;-77
2023/12/25 10:35:18;;;;;;;7.00;5.90;;;9.40;99.90;;;;;;5054123;28;20175;-79
2023/12/25 10:37:46;;;;;;;9.50;5.77;;;9.50;99.90;;;;;;5055114;28;20180;-80
2023/12/25 10:40:22;;;;;;;6.90;6.17;;;9.50;99.90;;;;;;5067181;28;20262;-78
2023/12/25 10:42:50;;;;;;;8.03;5.97;;;9.50;99.90;;;;;;5055514;28;20172;-79
2023/12/25 10:45:30;;;;;;;6.10;5.50;;;9.50;99.90;;;;;;5036729;28;20178;-79
2023/12/25 10:47:58;;;;;;;9.10;7.70;;;9.60;99.90;;;;;;5036630;28;20693;-77
2023/12/25 10:50:26;;;;;;;7.40;5.97;;;9.60;99.90;;;;;;5053968;28;20314;-78
2023/12/25 10:52:54;;;;;;;11.03;7.60;;;9.60;99.90;;;;;;5054579;28;20171;-78
2023/12/25 10:55:28;;;;;;;11.80;7.90;;;9.70;99.90;;;;;;5057531;28;20199;-76
2023/12/25 10:57:56;;;;;;;11.53;8.63;;;9.70;99.90;;;;;;5063486;28;20188;-77
2023/12/25 11:00:22;;;;;;;8.40;7.47;;;9.70;99.90;;;;;;5034988;28;20270;-78
2023/12/25 11:02:53;;;;;;;13.80;9.63;;;9.80;99.90;;;;;;5052685;28;20212;-77
2023/12/25 11:05:22;;;;;;;15.80;10.13;;;9.80;99.90;;;;;;5034720;28;20176;-77
2023/12/25 11:07:49;;;;;;;17.93;12.13;;;9.80;99.90;;;;;;5056217;28;20166;-76
2023/12/25 11:10:18;;;;;;;18.93;11.77;;;9.90;99.90;;;;;;5053533;28;20206;-75
2023/12/25 11:12:44;;;;;;;14.80;9.80;;;9.90;99.90;;;;;;5054010;28;20180;-78
2023/12/25 11:15:11;;;;;;;12.33;9.53;;;9.90;99.90;;;;;;5043871;28;20191;-78
2023/12/25 11:17:39;;;;;;;12.50;9.13;;;9.90;99.90;;;;;;5054558;28;20186;-76
2023/12/25 11:20:09;;;;;;;11.27;8.17;;;9.80;99.90;;;;;;5053715;28;20188;-78
2023/12/25 11:22:36;;;;;;;17.40;9.00;;;9.90;99.90;;;;;;5054641;28;20620;-75
2023/12/25 11:25:05;;;;;;;16.97;10.20;;;9.90;99.90;;;;;;5054339;28;20258;-77
2023/12/25 11:27:31;;;;;;;12.83;9.13;;;9.90;99.90;;;;;;5054448;28;20235;-78
2023/12/25 11:30:07;;;;;;;13.27;8.60;;;10.00;99.90;;;;;;5053368;28;20666;-78
2023/12/25 11:32:35;;;;;;;11.40;9.23;;;10.00;99.90;;;;;;5054060;28;20167;-79
2023/12/25 11:35:01;;;;;;;14.17;8.63;;;10.00;99.90;;;;;;5054273;28;20188;-77
2023/12/25 11:37:28;;;;;;;14.70;8.27;;;10.00;99.90;;;;;;5055323;28;20724;-78
2023/12/25 11:39:57;;;;;;;12.17;9.37;;;10.00;99.90;;;;;;5053585;28;20199;-77
2023/12/25 11:42:25;;;;;;;11.80;8.43;;;10.00;99.90;;;;;;5057328;28;20188;-75
2023/12/25 11:44:55;;;;;;;12.27;8.27;;;10.00;99.90;;;;;;5057199;28;20187;-79
2023/12/25 11:47:29;;;;;;;13.17;8.50;;;10.10;99.90;;;;;;5056822;28;20259;-80
2023/12/25 11:49:56;;;;;;;11.83;8.37;;;10.10;99.90;;;;;;5057575;28;20209;-77
2023/12/25 11:52:46;;;;;;;10.13;8.27;;;10.10;99.90;;;;;;5060351;28;20809;-76
2023/12/25 11:55:19;;;;;;;10.07;8.37;;;10.10;99.90;;;;;;5057914;28;20641;-76
2023/12/25 11:57:45;;;;;;;11.67;8.50;;;10.10;99.90;;;;;;5059117;28;20176;-78
2023/12/25 12:00:20;;;;;;;11.87;7.93;;;10.10;99.90;;;;;;5056844;28;20175;-78
2023/12/25 12:02:48;;;;;;;9.30;7.33;;;10.20;99.90;;;;;;5072581;28;20364;-77
2023/12/25 12:05:15;;;;;;;9.43;7.57;;;10.20;99.90;;;;;;5078353;28;20660;-76
2023/12/25 12:07:42;;;;;;;8.97;7.27;;;10.20;99.90;;;;;;5077412;28;20184;-78
2023/12/25 12:10:08;;;;;;;12.17;7.73;;;10.20;99.90;;;;;;5077090;28;20217;-77
2023/12/25 12:12:38;;;;;;;9.80;7.67;;;10.20;99.90;;;;;;5077438;28;20254;-79
2023/12/25 12:15:06;;;;;;;8.27;6.80;;;10.20;99.90;;;;;;5084567;28;20178;-79
2023/12/25 12:17:32;;;;;;;10.77;7.40;;;10.20;99.90;;;;;;5088102;28;20182;-77
2023/12/25 12:19:59;;;;;;;16.10;8.17;;;10.20;99.90;;;;;;5091906;28;20187;-79
2023/12/25 12:22:26;;;;;;;10.13;7.93;;;10.30;99.90;;;;;;5078358;28;20227;-76
2023/12/25 12:24:52;;;;;;;10.17;7.40;;;10.30;99.90;;;;;;5090502;28;20190;-79
2023/12/25 12:27:21;;;;;;;9.00;7.00;;;10.30;99.90;;;;;;5088153;28;20167;-78
2023/12/25 12:29:50;;;;;;;7.10;6.27;;;10.30;99.90;;;;;;5089443;28;20214;-76
2023/12/25 12:32:17;;;;;;;7.30;5.90;;;10.30;99.90;;;;;;5076673;28;20171;-78
2023/12/25 12:34:43;;;;;;;7.40;6.33;;;10.20;99.90;;;;;;5078775;28;20208;-78
2023/12/25 12:37:09;;;;;;;6.80;6.10;;;10.20;99.90;;;;;;5092340;28;20191;-76
2023/12/25 12:39:37;;;;;;;12.70;9.50;;;10.20;99.90;;;;;;5095791;28;20203;-75
2023/12/25 12:42:13;;;;;;;8.00;6.57;;;10.30;99.90;;;;;;5096651;28;20170;-76
2023/12/25 12:44:39;;;;;;;8.50;6.17;;;10.30;99.90;;;;;;5084620;28;20167;-77
2023/12/25 12:47:07;;;;;;;8.90;6.00;;;10.30;99.90;;;;;;5076718;28;20237;-78
2023/12/25 12:49:33;;;;;;;6.67;5.60;;;10.40;99.90;;;;;;5076291;28;20201;-78